sensor_id;sensor_type;location;lat;lon;timestamp;P1;durP1;ratioP1;P2;durP2;ratioP2
3733;SDS011;1882;52.256;8.874;2022-07-23T00:01:55;13.37;;;6.67;;
3733;SDS011;1882;52.256;8.874;2022-07-23T00:04:22;17.20;;;7.23;;
3733;SDS011;1882;52.256;8.874;2022-07-23T00:06:54;9.13;;;6.10;;
3733;SDS011;1882;52.256;8.874;2022-07-23T00:09:21;10.20;;;6.90;;
3733;SDS011;1882;52.256;8.874;2022-07-23T00:11:48;14.53;;;7.07;;
3733;SDS011;1882;52.256;8.874;2022-07-23T00:14:14;18.07;;;7.07;;
3733;SDS011;1882;52.256;8.874;2022-07-23T00:16:42;10.60;;;6.23;;
3733;SDS011;1882;52.256;8.874;2022-07-23T00:19:09;10.50;;;6.90;;
3733;SDS011;1882;52.256;8.874;2022-07-23T00:21:36;12.97;;;7.00;;
3733;SDS011;1882;52.256;8.874;2022-07-23T00:24:03;12.13;;;7.13;;
3733;SDS011;1882;52.256;8.874;2022-07-23T00:26:30;10.60;;;6.90;;
3733;SDS011;1882;52.256;8.874;2022-07-23T00:28:57;11.30;;;6.40;;
3733;SDS011;1882;52.256;8.874;2022-07-23T00:31:24;10.83;;;6.80;;
3733;SDS011;1882;52.256;8.874;2022-07-23T00:33:51;12.20;;;6.23;;
3733;SDS011;1882;52.256;8.874;2022-07-23T00:36:24;10.17;;;5.97;;
3733;SDS011;1882;52.256;8.874;2022-07-23T00:38:50;13.57;;;6.63;;
3733;SDS011;1882;52.256;8.874;2022-07-23T00:41:17;11.00;;;6.10;;
3733;SDS011;1882;52.256;8.874;2022-07-23T00:43:49;8.10;;;6.13;;
3733;SDS011;1882;52.256;8.874;2022-07-23T00:46:19;9.93;;;5.80;;
3733;SDS011;1882;52.256;8.874;2022-07-23T00:48:47;12.30;;;5.93;;
3733;SDS011;1882;52.256;8.874;2022-07-23T00:51:17;9.23;;;5.43;;
3733;SDS011;1882;52.256;8.874;2022-07-23T00:53:44;14.80;;;6.10;;
3733;SDS011;1882;52.256;8.874;2022-07-23T00:56:11;8.33;;;6.10;;
3733;SDS011;1882;52.256;8.874;2022-07-23T00:58:38;8.10;;;5.80;;
3733;SDS011;1882;52.256;8.874;2022-07-23T01:01:05;9.37;;;6.13;;
3733;SDS011;1882;52.256;8.874;2022-07-23T01:03:33;10.20;;;6.07;;
3733;SDS011;1882;52.256;8.874;2022-07-23T01:06:01;9.97;;;5.50;;
3733;SDS011;1882;52.256;8.874;2022-07-23T01:08:28;14.83;;;6.37;;
3733;SDS011;1882;52.256;8.874;2022-07-23T01:10:54;10.93;;;6.07;;
3733;SDS011;1882;52.256;8.874;2022-07-23T01:13:21;12.50;;;6.30;;
3733;SDS011;1882;52.256;8.874;2022-07-23T01:15:48;12.83;;;6.87;;
3733;SDS011;1882;52.256;8.874;2022-07-23T01:18:15;9.60;;;6.20;;
3733;SDS011;1882;52.256;8.874;2022-07-23T01:20:42;13.17;;;6.63;;
3733;SDS011;1882;52.256;8.874;2022-07-23T01:23:09;8.80;;;6.33;;
3733;SDS011;1882;52.256;8.874;2022-07-23T01:25:53;11.10;;;6.07;;
3733;SDS011;1882;52.256;8.874;2022-07-23T01:28:21;10.80;;;6.40;;
3733;SDS011;1882;52.256;8.874;2022-07-23T01:30:48;8.77;;;5.80;;
3733;SDS011;1882;52.256;8.874;2022-07-23T01:33:15;14.43;;;6.53;;
3733;SDS011;1882;52.256;8.874;2022-07-23T01:35:44;11.83;;;6.30;;
3733;SDS011;1882;52.256;8.874;2022-07-23T01:38:17;8.63;;;6.03;;
3733;SDS011;1882;52.256;8.874;2022-07-23T01:40:44;10.13;;;5.93;;
3733;SDS011;1882;52.256;8.874;2022-07-23T01:43:19;10.60;;;6.20;;
3733;SDS011;1882;52.256;8.874;2022-07-23T01:45:46;11.30;;;6.67;;
3733;SDS011;1882;52.256;8.874;2022-07-23T01:48:13;10.73;;;6.20;;
3733;SDS011;1882;52.256;8.874;2022-07-23T01:50:57;9.63;;;6.23;;
3733;SDS011;1882;52.256;8.874;2022-07-23T01:53:35;9.97;;;6.20;;
3733;SDS011;1882;52.256;8.874;2022-07-23T01:56:02;12.90;;;6.33;;
3733;SDS011;1882;52.256;8.874;2022-07-23T01:58:29;13.67;;;5.93;;
3733;SDS011;1882;52.256;8.874;2022-07-23T02:01:01;8.50;;;5.60;;
3733;SDS011;1882;52.256;8.874;2022-07-23T02:03:28;9.97;;;5.80;;
3733;SDS011;1882;52.256;8.874;2022-07-23T02:05:55;13.97;;;6.10;;
3733;SDS011;1882;52.256;8.874;2022-07-23T02:08:24;8.47;;;6.20;;
3733;SDS011;1882;52.256;8.874;2022-07-23T02:10:50;12.70;;;6.50;;
3733;SDS011;1882;52.256;8.874;2022-07-23T02:13:19;12.70;;;5.60;;
3733;SDS011;1882;52.256;8.874;2022-07-23T02:15:46;14.93;;;6.90;;
3733;SDS011;1882;52.256;8.874;2022-07-23T02:18:14;13.00;;;7.30;;
3733;SDS011;1882;52.256;8.874;2022-07-23T02:20:41;11.33;;;7.13;;
3733;SDS011;1882;52.256;8.874;2022-07-23T02:23:15;14.30;;;7.60;;
3733;SDS011;1882;52.256;8.874;2022-07-23T02:25:42;11.93;;;7.17;;
3733;SDS011;1882;52.256;8.874;2022-07-23T02:28:14;19.80;;;7.93;;
3733;SDS011;1882;52.256;8.874;2022-07-23T02:30:47;15.27;;;7.33;;
3733;SDS011;1882;52.256;8.874;2022-07-23T02:33:14;12.30;;;7.37;;
3733;SDS011;1882;52.256;8.874;2022-07-23T02:36:23;16.00;;;7.57;;
3733;SDS011;1882;52.256;8.874;2022-07-23T02:41:47;14.57;;;8.43;;
3733;SDS011;1882;52.256;8.874;2022-07-23T02:44:20;15.27;;;8.63;;
3733;SDS011;1882;52.256;8.874;2022-07-23T02:46:52;18.63;;;8.87;;
3733;SDS011;1882;52.256;8.874;2022-07-23T02:52:46;13.77;;;9.17;;
3733;SDS011;1882;52.256;8.874;2022-07-23T02:55:22;20.23;;;10.20;;
3733;SDS011;1882;52.256;8.874;2022-07-23T02:58:04;15.37;;;9.60;;
3733;SDS011;1882;52.256;8.874;2022-07-23T03:00:47;13.80;;;9.53;;
3733;SDS011;1882;52.256;8.874;2022-07-23T03:03:20;14.90;;;9.43;;
3733;SDS011;1882;52.256;8.874;2022-07-23T03:06:05;15.80;;;9.87;;
3733;SDS011;1882;52.256;8.874;2022-07-23T03:08:52;24.83;;;9.60;;
3733;SDS011;1882;52.256;8.874;2022-07-23T03:11:47;19.90;;;10.47;;
3733;SDS011;1882;52.256;8.874;2022-07-23T03:14:19;14.33;;;9.77;;
3733;SDS011;1882;52.256;8.874;2022-07-23T03:17:15;16.40;;;10.30;;
3733;SDS011;1882;52.256;8.874;2022-07-23T03:19:42;18.37;;;10.97;;
3733;SDS011;1882;52.256;8.874;2022-07-23T03:22:20;18.70;;;11.77;;
3733;SDS011;1882;52.256;8.874;2022-07-23T03:24:50;21.23;;;12.40;;
3733;SDS011;1882;52.256;8.874;2022-07-23T03:27:29;20.80;;;12.17;;
3733;SDS011;1882;52.256;8.874;2022-07-23T03:29:57;24.23;;;12.07;;
3733;SDS011;1882;52.256;8.874;2022-07-23T03:32:40;23.43;;;11.43;;
3733;SDS011;1882;52.256;8.874;2022-07-23T03:35:40;17.43;;;11.70;;
3733;SDS011;1882;52.256;8.874;2022-07-23T03:38:24;26.27;;;11.30;;
3733;SDS011;1882;52.256;8.874;2022-07-23T03:40:55;21.67;;;11.73;;
3733;SDS011;1882;52.256;8.874;2022-07-23T03:43:41;25.60;;;12.10;;
3733;SDS011;1882;52.256;8.874;2022-07-23T03:46:56;26.47;;;11.23;;
3733;SDS011;1882;52.256;8.874;2022-07-23T03:49:26;17.07;;;11.27;;
3733;SDS011;1882;52.256;8.874;2022-07-23T03:51:54;19.43;;;11.33;;
3733;SDS011;1882;52.256;8.874;2022-07-23T03:54:56;23.33;;;11.97;;
3733;SDS011;1882;52.256;8.874;2022-07-23T03:57:34;20.57;;;11.70;;
3733;SDS011;1882;52.256;8.874;2022-07-23T04:00:05;18.50;;;12.10;;
3733;SDS011;1882;52.256;8.874;2022-07-23T04:03:08;18.50;;;10.93;;
3733;SDS011;1882;52.256;8.874;2022-07-23T04:05:46;20.07;;;10.67;;
3733;SDS011;1882;52.256;8.874;2022-07-23T04:08:32;18.30;;;10.80;;
3733;SDS011;1882;52.256;8.874;2022-07-23T04:11:12;18.80;;;11.43;;
3733;SDS011;1882;52.256;8.874;2022-07-23T04:16:40;17.13;;;10.50;;
3733;SDS011;1882;52.256;8.874;2022-07-23T04:19:08;15.63;;;10.53;;
3733;SDS011;1882;52.256;8.874;2022-07-23T04:24:58;17.67;;;10.53;;
3733;SDS011;1882;52.256;8.874;2022-07-23T04:27:26;18.97;;;10.67;;
3733;SDS011;1882;52.256;8.874;2022-07-23T04:29:59;19.07;;;10.10;;
3733;SDS011;1882;52.256;8.874;2022-07-23T04:32:28;17.87;;;10.43;;
3733;SDS011;1882;52.256;8.874;2022-07-23T04:35:02;15.53;;;9.90;;
3733;SDS011;1882;52.256;8.874;2022-07-23T04:37:35;16.90;;;9.00;;
3733;SDS011;1882;52.256;8.874;2022-07-23T04:40:31;16.50;;;9.77;;
3733;SDS011;1882;52.256;8.874;2022-07-23T04:43:02;18.97;;;10.33;;
3733;SDS011;1882;52.256;8.874;2022-07-23T04:45:34;15.83;;;9.93;;
3733;SDS011;1882;52.256;8.874;2022-07-23T04:48:04;16.47;;;9.30;;
3733;SDS011;1882;52.256;8.874;2022-07-23T04:50:34;13.77;;;8.70;;
3733;SDS011;1882;52.256;8.874;2022-07-23T04:53:03;14.07;;;8.30;;
3733;SDS011;1882;52.256;8.874;2022-07-23T04:55:34;19.90;;;7.93;;
3733;SDS011;1882;52.256;8.874;2022-07-23T04:58:01;10.63;;;7.00;;
3733;SDS011;1882;52.256;8.874;2022-07-23T05:00:28;15.93;;;7.87;;
3733;SDS011;1882;52.256;8.874;2022-07-23T05:03:05;11.90;;;6.63;;
3733;SDS011;1882;52.256;8.874;2022-07-23T05:05:32;8.03;;;5.67;;
3733;SDS011;1882;52.256;8.874;2022-07-23T05:08:34;8.50;;;5.80;;
3733;SDS011;1882;52.256;8.874;2022-07-23T05:11:09;7.40;;;5.47;;
3733;SDS011;1882;52.256;8.874;2022-07-23T05:14:38;7.63;;;5.70;;
3733;SDS011;1882;52.256;8.874;2022-07-23T05:17:32;6.00;;;5.30;;
3733;SDS011;1882;52.256;8.874;2022-07-23T05:20:07;13.20;;;6.10;;
3733;SDS011;1882;52.256;8.874;2022-07-23T05:22:43;7.43;;;6.00;;
3733;SDS011;1882;52.256;8.874;2022-07-23T05:25:11;9.13;;;6.30;;
3733;SDS011;1882;52.256;8.874;2022-07-23T05:27:44;10.03;;;5.90;;
3733;SDS011;1882;52.256;8.874;2022-07-23T05:30:11;9.53;;;6.30;;
3733;SDS011;1882;52.256;8.874;2022-07-23T05:32:40;8.87;;;5.67;;
3733;SDS011;1882;52.256;8.874;2022-07-23T05:35:14;10.80;;;5.60;;
3733;SDS011;1882;52.256;8.874;2022-07-23T05:37:47;7.87;;;5.10;;
3733;SDS011;1882;52.256;8.874;2022-07-23T05:40:33;8.90;;;6.30;;
3733;SDS011;1882;52.256;8.874;2022-07-23T05:43:24;6.43;;;5.30;;
3733;SDS011;1882;52.256;8.874;2022-07-23T05:45:53;9.93;;;5.37;;
3733;SDS011;1882;52.256;8.874;2022-07-23T05:48:36;5.70;;;4.60;;
3733;SDS011;1882;52.256;8.874;2022-07-23T05:51:44;6.43;;;5.53;;
3733;SDS011;1882;52.256;8.874;2022-07-23T05:54:51;5.63;;;5.13;;
3733;SDS011;1882;52.256;8.874;2022-07-23T06:00:41;11.47;;;6.03;;
3733;SDS011;1882;52.256;8.874;2022-07-23T06:03:56;12.83;;;6.40;;
3733;SDS011;1882;52.256;8.874;2022-07-23T06:06:30;8.17;;;6.03;;
3733;SDS011;1882;52.256;8.874;2022-07-23T06:09:10;6.50;;;5.27;;
3733;SDS011;1882;52.256;8.874;2022-07-23T06:11:40;8.90;;;5.43;;
3733;SDS011;1882;52.256;8.874;2022-07-23T06:14:10;10.47;;;6.80;;
3733;SDS011;1882;52.256;8.874;2022-07-23T06:19:43;11.00;;;6.73;;
3733;SDS011;1882;52.256;8.874;2022-07-23T06:22:31;8.60;;;6.50;;
3733;SDS011;1882;52.256;8.874;2022-07-23T06:25:46;11.40;;;6.67;;
3733;SDS011;1882;52.256;8.874;2022-07-23T06:32:18;6.23;;;5.40;;
3733;SDS011;1882;52.256;8.874;2022-07-23T06:34:49;6.90;;;5.50;;
3733;SDS011;1882;52.256;8.874;2022-07-23T06:37:29;7.70;;;5.57;;
3733;SDS011;1882;52.256;8.874;2022-07-23T06:40:00;7.83;;;5.50;;
3733;SDS011;1882;52.256;8.874;2022-07-23T06:42:35;9.73;;;5.73;;
3733;SDS011;1882;52.256;8.874;2022-07-23T06:45:22;6.67;;;5.87;;
3733;SDS011;1882;52.256;8.874;2022-07-23T06:47:49;8.40;;;5.20;;
3733;SDS011;1882;52.256;8.874;2022-07-23T06:50:23;8.50;;;6.30;;
3733;SDS011;1882;52.256;8.874;2022-07-23T06:52:58;8.23;;;6.53;;
3733;SDS011;1882;52.256;8.874;2022-07-23T06:55:40;11.73;;;7.00;;
3733;SDS011;1882;52.256;8.874;2022-07-23T07:01:46;8.60;;;6.53;;
3733;SDS011;1882;52.256;8.874;2022-07-23T07:04:17;8.53;;;7.20;;
3733;SDS011;1882;52.256;8.874;2022-07-23T07:06:49;9.47;;;6.50;;
3733;SDS011;1882;52.256;8.874;2022-07-23T07:09:16;8.57;;;6.07;;
3733;SDS011;1882;52.256;8.874;2022-07-23T07:11:47;14.77;;;6.50;;
3733;SDS011;1882;52.256;8.874;2022-07-23T07:14:19;11.00;;;5.30;;
3733;SDS011;1882;52.256;8.874;2022-07-23T07:16:46;8.40;;;5.00;;
3733;SDS011;1882;52.256;8.874;2022-07-23T07:19:13;10.63;;;4.40;;
3733;SDS011;1882;52.256;8.874;2022-07-23T07:21:41;5.30;;;4.13;;
3733;SDS011;1882;52.256;8.874;2022-07-23T07:24:07;7.23;;;4.30;;
3733;SDS011;1882;52.256;8.874;2022-07-23T07:26:37;6.80;;;3.93;;
3733;SDS011;1882;52.256;8.874;2022-07-23T07:29:12;5.03;;;3.67;;
3733;SDS011;1882;52.256;8.874;2022-07-23T07:32:12;10.07;;;4.60;;
3733;SDS011;1882;52.256;8.874;2022-07-23T07:35:00;6.57;;;4.80;;
3733;SDS011;1882;52.256;8.874;2022-07-23T07:37:28;5.80;;;4.33;;
3733;SDS011;1882;52.256;8.874;2022-07-23T07:40:16;7.67;;;4.60;;
3733;SDS011;1882;52.256;8.874;2022-07-23T07:42:46;7.77;;;4.60;;
3733;SDS011;1882;52.256;8.874;2022-07-23T07:45:23;9.27;;;5.00;;
3733;SDS011;1882;52.256;8.874;2022-07-23T07:48:03;7.67;;;5.00;;
3733;SDS011;1882;52.256;8.874;2022-07-23T07:50:31;7.83;;;5.07;;
3733;SDS011;1882;52.256;8.874;2022-07-23T07:53:01;10.90;;;4.70;;
3733;SDS011;1882;52.256;8.874;2022-07-23T07:55:35;12.47;;;4.80;;
3733;SDS011;1882;52.256;8.874;2022-07-23T07:58:07;7.40;;;5.10;;
3733;SDS011;1882;52.256;8.874;2022-07-23T08:00:34;6.50;;;4.90;;
3733;SDS011;1882;52.256;8.874;2022-07-23T08:03:02;6.53;;;4.60;;
3733;SDS011;1882;52.256;8.874;2022-07-23T08:05:30;6.60;;;5.03;;
3733;SDS011;1882;52.256;8.874;2022-07-23T08:08:00;8.20;;;4.97;;
3733;SDS011;1882;52.256;8.874;2022-07-23T08:10:36;11.37;;;4.70;;
3733;SDS011;1882;52.256;8.874;2022-07-23T08:13:04;7.30;;;4.47;;
3733;SDS011;1882;52.256;8.874;2022-07-23T08:15:34;6.87;;;5.17;;
3733;SDS011;1882;52.256;8.874;2022-07-23T08:18:26;5.37;;;4.63;;
3733;SDS011;1882;52.256;8.874;2022-07-23T08:21:00;6.00;;;4.70;;
3733;SDS011;1882;52.256;8.874;2022-07-23T08:23:27;8.10;;;4.07;;
3733;SDS011;1882;52.256;8.874;2022-07-23T08:26:02;7.53;;;4.70;;
3733;SDS011;1882;52.256;8.874;2022-07-23T08:28:28;5.77;;;4.87;;
3733;SDS011;1882;52.256;8.874;2022-07-23T08:30:59;6.37;;;5.00;;
3733;SDS011;1882;52.256;8.874;2022-07-23T08:33:37;6.70;;;4.77;;
3733;SDS011;1882;52.256;8.874;2022-07-23T08:36:04;4.73;;;4.23;;
3733;SDS011;1882;52.256;8.874;2022-07-23T08:38:32;6.13;;;4.40;;
3733;SDS011;1882;52.256;8.874;2022-07-23T08:40:59;5.17;;;4.53;;
3733;SDS011;1882;52.256;8.874;2022-07-23T08:43:32;4.83;;;4.30;;
3733;SDS011;1882;52.256;8.874;2022-07-23T08:46:01;6.20;;;4.20;;
3733;SDS011;1882;52.256;8.874;2022-07-23T08:48:36;4.20;;;3.80;;
3733;SDS011;1882;52.256;8.874;2022-07-23T08:51:06;7.17;;;4.30;;
3733;SDS011;1882;52.256;8.874;2022-07-23T08:53:33;3.30;;;3.00;;
3733;SDS011;1882;52.256;8.874;2022-07-23T08:56:07;5.50;;;3.57;;
3733;SDS011;1882;52.256;8.874;2022-07-23T08:58:49;5.70;;;3.87;;
3733;SDS011;1882;52.256;8.874;2022-07-23T09:01:35;6.57;;;4.00;;
3733;SDS011;1882;52.256;8.874;2022-07-23T09:04:06;5.37;;;3.77;;
3733;SDS011;1882;52.256;8.874;2022-07-23T09:06:53;11.47;;;4.20;;
3733;SDS011;1882;52.256;8.874;2022-07-23T09:09:22;4.53;;;3.77;;
3733;SDS011;1882;52.256;8.874;2022-07-23T09:12:35;6.20;;;3.90;;
3733;SDS011;1882;52.256;8.874;2022-07-23T09:14:44;5.63;;;3.40;;
3733;SDS011;1882;52.256;8.874;2022-07-23T09:17:22;5.87;;;4.10;;
3733;SDS011;1882;52.256;8.874;2022-07-23T09:20:07;6.63;;;3.30;;
3733;SDS011;1882;52.256;8.874;2022-07-23T09:22:54;3.87;;;3.37;;
3733;SDS011;1882;52.256;8.874;2022-07-23T09:25:47;6.47;;;3.30;;
3733;SDS011;1882;52.256;8.874;2022-07-23T09:28:28;7.07;;;2.97;;
3733;SDS011;1882;52.256;8.874;2022-07-23T09:31:12;6.90;;;3.10;;
3733;SDS011;1882;52.256;8.874;2022-07-23T09:33:51;2.87;;;2.57;;
3733;SDS011;1882;52.256;8.874;2022-07-23T09:36:31;2.87;;;2.60;;
3733;SDS011;1882;52.256;8.874;2022-07-23T09:39:10;3.93;;;2.30;;
3733;SDS011;1882;52.256;8.874;2022-07-23T09:41:42;4.70;;;2.90;;
3733;SDS011;1882;52.256;8.874;2022-07-23T09:44:27;3.13;;;2.83;;
3733;SDS011;1882;52.256;8.874;2022-07-23T09:46:57;5.70;;;2.77;;
3733;SDS011;1882;52.256;8.874;2022-07-23T09:49:37;4.57;;;2.60;;
3733;SDS011;1882;52.256;8.874;2022-07-23T09:55:47;3.30;;;2.40;;
3733;SDS011;1882;52.256;8.874;2022-07-23T09:59:01;3.40;;;2.70;;
3733;SDS011;1882;52.256;8.874;2022-07-23T10:01:43;4.00;;;2.60;;
3733;SDS011;1882;52.256;8.874;2022-07-23T10:04:19;6.17;;;3.07;;
3733;SDS011;1882;52.256;8.874;2022-07-23T10:12:05;2.73;;;2.50;;
3733;SDS011;1882;52.256;8.874;2022-07-23T10:15:07;6.17;;;2.70;;
3733;SDS011;1882;52.256;8.874;2022-07-23T10:18:12;2.67;;;2.40;;
3733;SDS011;1882;52.256;8.874;2022-07-23T10:23:55;2.67;;;2.40;;
3733;SDS011;1882;52.256;8.874;2022-07-23T10:29:20;2.87;;;2.57;;
3733;SDS011;1882;52.256;8.874;2022-07-23T10:32:02;3.53;;;2.60;;
3733;SDS011;1882;52.256;8.874;2022-07-23T10:37:39;2.70;;;2.00;;
3733;SDS011;1882;52.256;8.874;2022-07-23T10:42:35;5.03;;;2.10;;
3733;SDS011;1882;52.256;8.874;2022-07-23T10:45:21;2.87;;;2.57;;
3733;SDS011;1882;52.256;8.874;2022-07-23T10:47:50;5.53;;;2.80;;
3733;SDS011;1882;52.256;8.874;2022-07-23T10:50:21;2.60;;;2.40;;
3733;SDS011;1882;52.256;8.874;2022-07-23T10:58:00;2.90;;;2.60;;
3733;SDS011;1882;52.256;8.874;2022-07-23T11:00:32;6.67;;;2.40;;
3733;SDS011;1882;52.256;8.874;2022-07-23T11:03:00;4.10;;;2.80;;
3733;SDS011;1882;52.256;8.874;2022-07-23T11:05:41;5.27;;;2.50;;
3733;SDS011;1882;52.256;8.874;2022-07-23T11:08:12;6.73;;;2.63;;
3733;SDS011;1882;52.256;8.874;2022-07-23T11:10:44;2.33;;;2.13;;
3733;SDS011;1882;52.256;8.874;2022-07-23T11:13:46;2.50;;;2.30;;
3733;SDS011;1882;52.256;8.874;2022-07-23T11:16:20;2.80;;;2.37;;
3733;SDS011;1882;52.256;8.874;2022-07-23T11:18:54;7.27;;;2.67;;
3733;SDS011;1882;52.256;8.874;2022-07-23T11:24:12;3.07;;;2.30;;
3733;SDS011;1882;52.256;8.874;2022-07-23T11:26:45;3.43;;;2.50;;
3733;SDS011;1882;52.256;8.874;2022-07-23T11:29:46;5.03;;;2.67;;
3733;SDS011;1882;52.256;8.874;2022-07-23T11:32:24;3.60;;;2.40;;
3733;SDS011;1882;52.256;8.874;2022-07-23T11:34:55;4.17;;;2.50;;
3733;SDS011;1882;52.256;8.874;2022-07-23T11:40:01;5.07;;;3.00;;
3733;SDS011;1882;52.256;8.874;2022-07-23T11:42:31;3.27;;;2.80;;
3733;SDS011;1882;52.256;8.874;2022-07-23T11:44:58;4.30;;;2.70;;
3733;SDS011;1882;52.256;8.874;2022-07-23T11:47:26;2.47;;;2.20;;
3733;SDS011;1882;52.256;8.874;2022-07-23T11:49:54;8.03;;;2.37;;
3733;SDS011;1882;52.256;8.874;2022-07-23T11:52:24;3.80;;;2.30;;
3733;SDS011;1882;52.256;8.874;2022-07-23T11:54:58;3.37;;;2.37;;
3733;SDS011;1882;52.256;8.874;2022-07-23T11:58:05;2.57;;;2.37;;
3733;SDS011;1882;52.256;8.874;2022-07-23T12:00:40;4.30;;;2.30;;
3733;SDS011;1882;52.256;8.874;2022-07-23T12:03:09;3.30;;;2.03;;
3733;SDS011;1882;52.256;8.874;2022-07-23T12:06:11;2.50;;;2.30;;
3733;SDS011;1882;52.256;8.874;2022-07-23T12:11:24;3.50;;;2.33;;
3733;SDS011;1882;52.256;8.874;2022-07-23T12:14:09;3.73;;;2.73;;
3733;SDS011;1882;52.256;8.874;2022-07-23T12:16:36;2.40;;;2.20;;
3733;SDS011;1882;52.256;8.874;2022-07-23T12:19:05;2.73;;;2.00;;
3733;SDS011;1882;52.256;8.874;2022-07-23T12:21:42;2.07;;;1.97;;
3733;SDS011;1882;52.256;8.874;2022-07-23T12:24:24;3.77;;;2.20;;
3733;SDS011;1882;52.256;8.874;2022-07-23T12:27:10;2.70;;;2.50;;
3733;SDS011;1882;52.256;8.874;2022-07-23T12:32:44;4.73;;;2.20;;
3733;SDS011;1882;52.256;8.874;2022-07-23T12:35:14;3.33;;;2.50;;
3733;SDS011;1882;52.256;8.874;2022-07-23T12:37:42;2.90;;;2.10;;
3733;SDS011;1882;52.256;8.874;2022-07-23T12:40:23;2.73;;;2.20;;
3733;SDS011;1882;52.256;8.874;2022-07-23T12:43:01;2.73;;;1.80;;
3733;SDS011;1882;52.256;8.874;2022-07-23T12:45:41;2.70;;;2.13;;
3733;SDS011;1882;52.256;8.874;2022-07-23T12:48:23;3.03;;;2.27;;
3733;SDS011;1882;52.256;8.874;2022-07-23T12:51:09;2.50;;;2.30;;
3733;SDS011;1882;52.256;8.874;2022-07-23T12:56:14;4.00;;;2.33;;
3733;SDS011;1882;52.256;8.874;2022-07-23T13:09:14;6.50;;;1.93;;
3733;SDS011;1882;52.256;8.874;2022-07-23T13:11:46;3.37;;;2.00;;
3733;SDS011;1882;52.256;8.874;2022-07-23T13:14:15;2.20;;;1.90;;
3733;SDS011;1882;52.256;8.874;2022-07-23T13:16:47;2.10;;;2.00;;
3733;SDS011;1882;52.256;8.874;2022-07-23T13:19:18;4.70;;;2.20;;
3733;SDS011;1882;52.256;8.874;2022-07-23T13:21:52;6.43;;;2.10;;
3733;SDS011;1882;52.256;8.874;2022-07-23T13:24:24;6.27;;;1.90;;
3733;SDS011;1882;52.256;8.874;2022-07-23T13:26:52;3.27;;;1.90;;
3733;SDS011;1882;52.256;8.874;2022-07-23T13:29:20;3.53;;;1.90;;
3733;SDS011;1882;52.256;8.874;2022-07-23T13:31:48;2.27;;;2.07;;
3733;SDS011;1882;52.256;8.874;2022-07-23T13:34:17;5.53;;;1.93;;
3733;SDS011;1882;52.256;8.874;2022-07-23T13:36:45;2.03;;;1.93;;
3733;SDS011;1882;52.256;8.874;2022-07-23T13:39:13;2.50;;;2.10;;
3733;SDS011;1882;52.256;8.874;2022-07-23T13:41:40;5.97;;;2.13;;
3733;SDS011;1882;52.256;8.874;2022-07-23T13:44:16;2.00;;;1.90;;
3733;SDS011;1882;52.256;8.874;2022-07-23T13:46:48;3.90;;;2.10;;
3733;SDS011;1882;52.256;8.874;2022-07-23T13:49:15;3.10;;;2.07;;
3733;SDS011;1882;52.256;8.874;2022-07-23T13:51:45;2.73;;;1.90;;
3733;SDS011;1882;52.256;8.874;2022-07-23T13:54:30;3.17;;;1.90;;
3733;SDS011;1882;52.256;8.874;2022-07-23T13:57:39;2.20;;;2.10;;
3733;SDS011;1882;52.256;8.874;2022-07-23T14:00:29;4.30;;;2.00;;
3733;SDS011;1882;52.256;8.874;2022-07-23T14:03:20;3.20;;;2.00;;
3733;SDS011;1882;52.256;8.874;2022-07-23T14:05:53;2.37;;;1.80;;
3733;SDS011;1882;52.256;8.874;2022-07-23T14:11:35;2.57;;;2.20;;
3733;SDS011;1882;52.256;8.874;2022-07-23T14:14:35;2.07;;;1.90;;
3733;SDS011;1882;52.256;8.874;2022-07-23T14:17:21;3.47;;;1.80;;
3733;SDS011;1882;52.256;8.874;2022-07-23T14:20:02;2.33;;;1.83;;
3733;SDS011;1882;52.256;8.874;2022-07-23T14:22:33;2.80;;;1.90;;
3733;SDS011;1882;52.256;8.874;2022-07-23T14:25:33;1.97;;;1.87;;
3733;SDS011;1882;52.256;8.874;2022-07-23T14:28:00;2.03;;;1.77;;
3733;SDS011;1882;52.256;8.874;2022-07-23T14:31:02;2.77;;;2.00;;
3733;SDS011;1882;52.256;8.874;2022-07-23T14:34:03;3.57;;;1.90;;
3733;SDS011;1882;52.256;8.874;2022-07-23T14:36:35;2.17;;;1.97;;
3733;SDS011;1882;52.256;8.874;2022-07-23T14:39:21;4.17;;;2.10;;
3733;SDS011;1882;52.256;8.874;2022-07-23T14:42:20;7.30;;;1.70;;
3733;SDS011;1882;52.256;8.874;2022-07-23T14:48:29;1.80;;;1.70;;
3733;SDS011;1882;52.256;8.874;2022-07-23T14:54:28;2.03;;;1.80;;
3733;SDS011;1882;52.256;8.874;2022-07-23T14:57:18;3.23;;;1.97;;
3733;SDS011;1882;52.256;8.874;2022-07-23T15:00:11;3.60;;;1.90;;
3733;SDS011;1882;52.256;8.874;2022-07-23T15:03:09;2.33;;;2.00;;
3733;SDS011;1882;52.256;8.874;2022-07-23T15:05:42;2.00;;;1.73;;
3733;SDS011;1882;52.256;8.874;2022-07-23T15:08:41;2.47;;;1.80;;
3733;SDS011;1882;52.256;8.874;2022-07-23T15:11:28;1.90;;;1.80;;
3733;SDS011;1882;52.256;8.874;2022-07-23T15:14:19;4.70;;;2.13;;
3733;SDS011;1882;52.256;8.874;2022-07-23T15:17:12;3.67;;;1.80;;
3733;SDS011;1882;52.256;8.874;2022-07-23T15:19:58;1.70;;;1.60;;
3733;SDS011;1882;52.256;8.874;2022-07-23T15:25:34;2.00;;;1.90;;
3733;SDS011;1882;52.256;8.874;2022-07-23T15:28:04;3.53;;;2.17;;
3733;SDS011;1882;52.256;8.874;2022-07-23T15:30:34;2.47;;;1.80;;
3733;SDS011;1882;52.256;8.874;2022-07-23T15:33:03;3.30;;;1.70;;
3733;SDS011;1882;52.256;8.874;2022-07-23T15:35:32;2.23;;;1.80;;
3733;SDS011;1882;52.256;8.874;2022-07-23T15:38:00;1.90;;;1.70;;
3733;SDS011;1882;52.256;8.874;2022-07-23T15:40:38;1.87;;;1.77;;
3733;SDS011;1882;52.256;8.874;2022-07-23T15:43:06;2.63;;;1.90;;
3733;SDS011;1882;52.256;8.874;2022-07-23T15:45:36;3.53;;;1.90;;
3733;SDS011;1882;52.256;8.874;2022-07-23T15:48:03;1.80;;;1.70;;
3733;SDS011;1882;52.256;8.874;2022-07-23T15:50:31;4.00;;;2.20;;
3733;SDS011;1882;52.256;8.874;2022-07-23T15:52:59;1.97;;;1.67;;
3733;SDS011;1882;52.256;8.874;2022-07-23T15:55:28;2.30;;;1.77;;
3733;SDS011;1882;52.256;8.874;2022-07-23T15:57:55;2.00;;;1.90;;
3733;SDS011;1882;52.256;8.874;2022-07-23T16:00:26;2.13;;;1.77;;
3733;SDS011;1882;52.256;8.874;2022-07-23T16:02:58;1.93;;;1.80;;
3733;SDS011;1882;52.256;8.874;2022-07-23T16:05:32;3.93;;;1.60;;
3733;SDS011;1882;52.256;8.874;2022-07-23T16:08:01;2.30;;;1.90;;
3733;SDS011;1882;52.256;8.874;2022-07-23T16:10:29;2.60;;;1.97;;
3733;SDS011;1882;52.256;8.874;2022-07-23T16:12:58;1.90;;;1.80;;
3733;SDS011;1882;52.256;8.874;2022-07-23T16:15:30;2.90;;;2.00;;
3733;SDS011;1882;52.256;8.874;2022-07-23T16:17:59;2.70;;;1.80;;
3733;SDS011;1882;52.256;8.874;2022-07-23T16:20:28;1.77;;;1.67;;
3733;SDS011;1882;52.256;8.874;2022-07-23T16:22:55;2.03;;;1.73;;
3733;SDS011;1882;52.256;8.874;2022-07-23T16:25:24;4.47;;;1.90;;
3733;SDS011;1882;52.256;8.874;2022-07-23T16:27:52;1.90;;;1.80;;
3733;SDS011;1882;52.256;8.874;2022-07-23T16:30:20;2.43;;;1.60;;
3733;SDS011;1882;52.256;8.874;2022-07-23T16:32:50;1.90;;;1.80;;
3733;SDS011;1882;52.256;8.874;2022-07-23T16:35:29;3.73;;;2.00;;
3733;SDS011;1882;52.256;8.874;2022-07-23T16:37:58;3.00;;;1.90;;
3733;SDS011;1882;52.256;8.874;2022-07-23T16:40:27;2.00;;;1.87;;
3733;SDS011;1882;52.256;8.874;2022-07-23T16:42:57;2.83;;;1.90;;
3733;SDS011;1882;52.256;8.874;2022-07-23T16:45:25;4.90;;;2.00;;
3733;SDS011;1882;52.256;8.874;2022-07-23T16:47:56;1.80;;;1.70;;
3733;SDS011;1882;52.256;8.874;2022-07-23T16:50:26;1.70;;;1.60;;
3733;SDS011;1882;52.256;8.874;2022-07-23T16:52:53;2.17;;;2.00;;
3733;SDS011;1882;52.256;8.874;2022-07-23T16:55:25;2.30;;;2.10;;
3733;SDS011;1882;52.256;8.874;2022-07-23T16:57:55;2.33;;;1.80;;
3733;SDS011;1882;52.256;8.874;2022-07-23T17:00:25;2.60;;;2.00;;
3733;SDS011;1882;52.256;8.874;2022-07-23T17:02:54;2.23;;;1.90;;
3733;SDS011;1882;52.256;8.874;2022-07-23T17:05:47;2.57;;;2.00;;
3733;SDS011;1882;52.256;8.874;2022-07-23T17:09:13;4.30;;;2.00;;
3733;SDS011;1882;52.256;8.874;2022-07-23T17:11:52;1.83;;;1.70;;
3733;SDS011;1882;52.256;8.874;2022-07-23T17:15:39;2.83;;;2.53;;
3733;SDS011;1882;52.256;8.874;2022-07-23T17:18:37;6.47;;;3.60;;
3733;SDS011;1882;52.256;8.874;2022-07-23T17:21:24;5.97;;;2.30;;
3733;SDS011;1882;52.256;8.874;2022-07-23T17:24:49;3.03;;;2.30;;
3733;SDS011;1882;52.256;8.874;2022-07-23T17:28:12;4.77;;;3.30;;
3733;SDS011;1882;52.256;8.874;2022-07-23T17:30:57;3.40;;;2.50;;
3733;SDS011;1882;52.256;8.874;2022-07-23T17:33:42;2.70;;;2.10;;
3733;SDS011;1882;52.256;8.874;2022-07-23T17:36:41;1.90;;;1.80;;